Anita, Pennsylvania
Current Conditions -  °F | °C
As of 11:33 AM on Wednesday 26 Nov 2014 (Local Time) from KDUJ Reporting Station
Light Snow Light Snow  
Wind Chill: 25°   Ceiling: 1400
Heat Index: 31°   Visibility: 0.25mi
Dew Point: 28°   Wind: 6mph
Humidity: 89%   Direction: 90°E
Pressure: 30.04"   Gusts: NA
Location:  41°N, 78.96°W
Report Text: KDUJ 261633Z AUTO 09005KT 1/4SM -SN FZFG VV014 M01/M02 A3004 RMK AO2 P0001 T10061022
Loading
Personal Weather Stations






























Interactive Weather Map New forecast layout! Learn more

10-Day Weather Forecast

Advertisements
Track Severe Weather on mobile